Time;durP1;ratioP1;P1;durP2;ratioP2;P2;SDS_P1;SDS_P2;PMS_P1;PMS_P2;Temp;Humidity;BMP_temperature;BMP_pressure;BME280_temperature;BME280_humidity;BME280_pressure;Samples;Min_cycle;Max_cycle;Signal;HPM_P1;HPM_P2
2022/12/28 00:01:49;;;;;;;20.90;11.00;;;;;;;1.97;86.48;99435.43;421814;1299;112323;-39
2022/12/28 00:11:56;;;;;;;20.20;11.10;;;;;;;2.11;86.49;99431.02;421895;1289;107343;-40
2022/12/28 00:22:03;;;;;;;30.00;14.90;;;;;;;2.13;86.81;99430.08;421907;1298;98844;-38
2022/12/28 00:32:10;;;;;;;29.90;13.40;;;;;;;2.05;86.72;99433.02;421816;1288;107851;-40
2022/12/28 00:42:17;;;;;;;23.20;11.60;;;;;;;1.97;86.62;99433.83;421982;1299;98076;-39
2022/12/28 00:52:24;;;;;;;19.20;11.20;;;;;;;1.86;86.68;99436.98;421876;1295;110833;-39
2022/12/28 01:02:31;;;;;;;18.40;10.70;;;;;;;1.82;86.40;99430.67;421852;1295;109469;-41
2022/12/28 01:12:39;;;;;;;18.20;10.30;;;;;;;1.69;86.43;99433.34;421798;1296;99229;-40
2022/12/28 01:22:44;;;;;;;24.10;12.70;;;;;;;1.41;86.44;99432.48;421861;1293;109523;-39
2022/12/28 01:32:51;;;;;;;28.40;14.10;;;;;;;1.14;86.65;99426.17;421943;1293;99217;-41
2022/12/28 01:42:58;;;;;;;30.00;13.00;;;;;;;0.92;86.54;99419.73;421922;1298;112127;-39
2022/12/28 01:53:06;;;;;;;22.90;11.80;;;;;;;0.85;86.66;99410.58;421862;1294;107615;-40
2022/12/28 02:03:18;;;;;;;20.50;11.50;;;;;;;0.83;86.56;99403.86;421931;1288;99236;-40
2022/12/28 02:13:27;;;;;;;23.60;10.80;;;;;;;0.79;86.59;99393.77;421915;1288;107784;-39
2022/12/28 02:23:36;;;;;;;25.80;11.50;;;;;;;0.77;86.85;99378.79;421930;1291;98830;-38
2022/12/28 02:33:44;;;;;;;22.60;12.70;;;;;;;0.66;86.91;99363.50;422927;1259;110529;-39
2022/12/28 02:43:53;;;;;;;25.80;15.30;;;;;;;0.41;86.76;99346.64;420543;1291;362944;-39
2022/12/28 02:54:03;;;;;;;16.60;10.90;;;;;;;0.24;86.85;99337.50;420825;1291;98834;-39
2022/12/28 03:04:14;;;;;;;14.60;10.20;;;;;;;0.32;86.95;99336.38;420891;1283;110875;-39
2022/12/28 03:14:20;;;;;;;14.20;9.20;;;;;;;0.41;87.14;99332.62;420880;1284;107897;-38
2022/12/28 03:34:54;;;;;;;29.00;14.00;;;;;;;0.20;87.09;99327.11;420825;1291;110796;-39
2022/12/28 03:45:00;;;;;;;16.10;9.30;;;;;;;0.09;87.17;99315.06;420714;1292;98861;-41
2022/12/28 03:55:05;;;;;;;16.50;11.50;;;;;;;0.08;87.30;99315.86;420949;1298;111886;-41
2022/12/28 04:05:14;;;;;;;16.80;10.70;;;;;;;0.08;87.41;99309.27;420728;1291;107872;-39
2022/12/28 04:15:21;;;;;;;17.70;9.10;;;;;;;0.02;87.08;99295.08;420857;1298;99361;-40
2022/12/28 04:25:29;;;;;;;13.20;9.50;;;;;;;-0.05;87.20;99266.41;420877;1291;107527;-40
2022/12/28 04:35:36;;;;;;;26.50;15.60;;;;;;;-0.16;87.30;99271.98;420822;1298;99159;-40
2022/12/28 04:45:43;;;;;;;22.30;12.00;;;;;;;-0.27;87.59;99273.43;420867;1295;113372;-40
2022/12/28 04:55:50;;;;;;;19.00;10.00;;;;;;;-0.33;87.60;99273.64;421010;1291;109195;-41
2022/12/28 05:06:00;;;;;;;20.70;10.00;;;;;;;-0.34;87.50;99264.89;420997;1292;98879;-42
2022/12/28 05:16:10;;;;;;;25.10;14.30;;;;;;;-0.37;87.58;99247.68;420901;1291;110583;-40
2022/12/28 05:26:21;;;;;;;23.90;12.10;;;;;;;-0.30;87.67;99250.45;420819;1281;107754;-40
2022/12/28 05:36:31;;;;;;;24.50;13.00;;;;;;;-0.37;87.74;99234.69;420913;1294;98541;-40
2022/12/28 05:46:38;;;;;;;36.70;21.30;;;;;;;-0.48;88.12;99227.45;421101;1298;110792;-40
2022/12/28 05:56:46;;;;;;;26.10;13.80;;;;;;;-0.49;87.96;99213.88;420953;1292;107454;-39
2022/12/28 06:06:54;;;;;;;22.60;12.60;;;;;;;-0.48;87.93;99201.25;420831;1291;101478;-40
2022/12/28 06:17:01;;;;;;;35.00;18.60;;;;;;;-0.48;88.08;99182.25;420830;1291;108113;-39
2022/12/28 06:27:08;;;;;;;26.70;15.60;;;;;;;-0.50;88.04;99168.67;420818;1291;98225;-40
2022/12/28 06:37:15;;;;;;;35.50;17.30;;;;;;;-0.49;88.31;99161.51;420891;1298;113420;-40
2022/12/28 06:47:23;;;;;;;42.70;20.40;;;;;;;-0.49;88.54;99152.70;420989;1291;109545;-39
2022/12/28 06:57:30;;;;;;;30.70;16.00;;;;;;;-0.46;88.33;99151.58;420976;1291;99254;-39
2022/12/28 07:07:37;;;;;;;27.90;15.10;;;;;;;-0.33;88.53;99150.60;420859;1298;113030;-40
2022/12/28 07:17:43;;;;;;;39.60;16.30;;;;;;;-0.13;88.48;99139.16;420901;1291;108233;-40
2022/12/28 07:27:50;;;;;;;34.60;17.80;;;;;;;-0.00;88.68;99131.31;420992;1295;99335;-40
2022/12/28 07:37:58;;;;;;;31.30;16.80;;;;;;;0.12;88.78;99123.19;420941;1297;107832;-40
2022/12/28 07:48:04;;;;;;;27.80;14.80;;;;;;;0.36;88.60;99118.90;420935;1298;98032;-40
2022/12/28 08:08:18;;;;;;;32.50;15.40;;;;;;;0.99;88.83;99109.00;420889;1287;108611;-39
2022/12/28 08:18:25;;;;;;;29.60;15.30;;;;;;;1.31;88.91;99106.83;420958;1299;99240;-40
2022/12/28 08:28:34;;;;;;;33.70;13.70;;;;;;;1.51;88.67;99108.84;421095;1292;106956;-39
2022/12/28 08:38:43;;;;;;;14.70;6.70;;;;;;;1.66;88.48;99109.77;420920;1292;98092;-40
2022/12/28 08:48:51;;;;;;;10.50;5.20;;;;;;;1.89;88.35;99109.36;420959;1291;110102;-39
2022/12/28 08:59:00;;;;;;;16.10;7.30;;;;;;;2.08;88.25;99106.50;421050;1299;107782;-40
2022/12/28 09:09:11;;;;;;;11.80;6.60;;;;;;;2.18;88.10;99113.09;420918;1291;99184;-44
2022/12/28 09:19:19;;;;;;;7.60;3.80;;;;;;;2.31;87.84;99114.73;420889;1298;107713;-40
2022/12/28 09:29:26;;;;;;;13.90;4.30;;;;;;;2.51;87.60;99114.73;420822;1298;99367;-40
2022/12/28 09:39:34;;;;;;;9.30;4.70;;;;;;;2.65;87.46;99104.83;421037;1295;112394;-38
2022/12/28 09:49:44;;;;;;;10.50;4.50;;;;;;;2.72;87.25;99096.22;420921;1298;107012;-40
2022/12/28 09:59:52;;;;;;;5.90;4.40;;;;;;;2.82;86.83;99090.27;420988;1298;97971;-40
2022/12/28 10:10:00;;;;;;;5.10;3.60;;;;;;;3.03;86.48;99076.29;420960;1299;107276;-39
2022/12/28 10:20:14;;;;;;;14.50;5.70;;;;;;;3.18;86.36;99051.42;420861;1295;99240;-39
2022/12/28 10:30:19;;;;;;;8.40;4.30;;;;;;;3.21;86.20;99030.98;420939;1292;112198;-40
2022/12/28 10:40:30;;;;;;;11.10;4.70;;;;;;;3.20;85.89;99005.48;420987;1292;107662;-40
2022/12/28 10:50:45;;;;;;;7.00;2.40;;;;;;;3.24;85.48;98985.16;420977;1299;98543;-40
2022/12/28 11:11:01;;;;;;;13.10;5.40;;;;;;;3.42;85.07;98972.14;421002;1299;108467;-40
2022/12/28 11:21:10;;;;;;;13.10;5.50;;;;;;;3.43;84.92;98957.55;420991;1299;98005;-39
2022/12/28 11:31:15;;;;;;;8.40;3.90;;;;;;;3.52;84.52;98933.08;420951;1290;111743;-40
2022/12/28 11:52:37;;;;;;;12.80;6.00;;;;;;;3.79;84.36;98913.99;420940;1291;99217;-41
2022/12/28 12:02:47;;;;;;;15.50;6.30;;;;;;;3.81;84.13;98896.31;420936;1298;108121;-40
2022/12/28 12:12:55;;;;;;;14.00;7.00;;;;;;;3.76;83.87;98867.33;421196;1284;98752;-39
2022/12/28 12:23:01;;;;;;;7.30;4.10;;;;;;;3.82;83.33;98836.24;420966;1295;112159;-41
2022/12/28 12:33:12;;;;;;;10.10;5.70;;;;;;;4.03;83.11;98818.95;420917;1291;109454;-39
2022/12/28 12:43:29;;;;;;;11.90;6.90;;;;;;;4.12;82.96;98802.68;420921;1299;99255;-39
2022/12/28 12:53:48;;;;;;;19.20;7.70;;;;;;;4.11;82.99;98789.31;421085;1298;108356;-41
2022/12/28 13:03:59;;;;;;;16.00;8.00;;;;;;;4.19;82.78;98780.10;421062;1294;98850;-40
2022/12/28 13:24:21;;;;;;;9.30;4.90;;;;;;;4.83;82.12;98761.36;421057;1298;107275;-40
2022/12/28 13:34:32;;;;;;;6.60;4.70;;;;;;;4.84;81.42;98764.14;421001;1297;99217;-40
2022/12/28 13:44:40;;;;;;;11.60;6.20;;;;;;;4.69;81.05;98760.04;420977;1298;110068;-41
2022/12/28 13:54:46;;;;;;;15.80;7.30;;;;;;;4.45;80.49;98763.40;420812;1299;107428;-40
2022/12/28 14:04:55;;;;;;;9.80;4.90;;;;;;;4.32;80.57;98768.44;420835;1304;99227;-39
2022/12/28 14:15:04;;;;;;;14.40;5.90;;;;;;;4.29;80.29;98753.14;420945;1299;108004;-39
2022/12/28 14:25:11;;;;;;;13.70;6.70;;;;;;;4.16;80.32;98737.81;420977;1299;99335;-40
2022/12/28 14:45:34;;;;;;;13.70;6.50;;;;;;;3.68;79.99;98708.91;420947;1299;107107;-40
2022/12/28 14:56:00;;;;;;;8.00;4.80;;;;;;;3.54;79.81;98697.30;421126;1295;99116;-39
2022/12/28 15:06:08;;;;;;;10.80;5.70;;;;;;;3.49;79.69;98675.22;421001;1296;108209;-41
2022/12/28 15:16:17;;;;;;;24.00;10.60;;;;;;;3.48;79.93;98677.75;421708;1298;98032;-41
2022/12/28 15:26:26;;;;;;;17.80;9.40;;;;;;;3.44;80.01;98683.73;421016;1287;111276;-41
2022/12/28 15:36:34;;;;;;;17.10;9.30;;;;;;;3.31;80.12;98679.30;421055;1299;108330;-40
2022/12/28 15:46:41;;;;;;;11.90;7.30;;;;;;;3.26;80.03;98665.97;420919;1291;98043;-39
2022/12/28 15:56:54;;;;;;;13.60;6.90;;;;;;;3.25;80.01;98657.67;420928;1297;111456;-40
2022/12/28 16:07:02;;;;;;;20.10;9.10;;;;;;;3.21;80.31;98654.09;420957;1299;108917;-40
2022/12/28 16:17:09;;;;;;;24.80;9.90;;;;;;;3.20;80.25;98650.17;420987;1295;99208;-40
2022/12/28 16:27:16;;;;;;;18.90;8.60;;;;;;;3.25;80.21;98642.08;420869;1289;108613;-39
2022/12/28 16:37:24;;;;;;;17.30;9.10;;;;;;;3.25;80.21;98640.60;421012;1300;98190;-40
2022/12/28 16:47:31;;;;;;;20.90;11.60;;;;;;;3.17;80.56;98652.73;420970;1295;112831;-40
2022/12/28 16:57:39;;;;;;;26.40;13.80;;;;;;;3.08;80.60;98657.70;420869;1299;109210;-40
2022/12/28 17:07:46;;;;;;;31.90;13.90;;;;;;;2.95;80.72;98660.39;421379;1292;99278;-40
2022/12/28 17:17:53;;;;;;;21.70;11.00;;;;;;;2.92;80.68;98658.82;422237;1287;111851;-41
2022/12/28 17:28:00;;;;;;;15.50;8.30;;;;;;;3.00;80.84;98665.59;420952;1291;107975;-39
2022/12/28 17:38:10;;;;;;;17.90;9.50;;;;;;;3.03;80.95;98651.73;422178;1298;98688;-39
2022/12/28 17:48:16;;;;;;;27.60;12.20;;;;;;;2.99;81.05;98638.83;420961;1298;111732;-40
2022/12/28 17:58:23;;;;;;;16.00;8.70;;;;;;;2.95;81.04;98628.36;420915;1298;106721;-40
2022/12/28 18:08:33;;;;;;;15.80;10.40;;;;;;;3.00;81.00;98643.09;420963;1299;99245;-40
2022/12/28 18:18:40;;;;;;;28.20;12.40;;;;;;;3.05;81.13;98656.61;420933;1287;110126;-40
2022/12/28 18:28:48;;;;;;;27.60;12.00;;;;;;;3.06;81.30;98652.61;420902;1287;106118;-38
2022/12/28 18:38:54;;;;;;;25.90;11.50;;;;;;;3.05;81.25;98659.59;420980;1298;99154;-40
2022/12/28 18:49:01;;;;;;;16.40;9.40;;;;;;;3.15;81.13;98659.13;420962;1298;110852;-39
2022/12/28 18:59:08;;;;;;;18.90;11.60;;;;;;;3.31;81.25;98661.30;421006;1299;109294;-40
2022/12/28 19:09:16;;;;;;;23.60;11.70;;;;;;;3.42;81.39;98655.48;421013;1295;99217;-40
2022/12/28 19:19:24;;;;;;;32.10;14.00;;;;;;;3.45;81.29;98636.41;421095;1298;112280;-40
2022/12/28 19:29:31;;;;;;;17.10;7.30;;;;;;;3.47;81.10;98626.66;420935;1298;109893;-41
2022/12/28 19:39:38;;;;;;;14.00;7.10;;;;;;;3.52;80.95;98623.81;420991;1290;99284;-40
2022/12/28 19:49:45;;;;;;;15.50;8.00;;;;;;;3.47;80.93;98618.98;420940;1298;108524;-40
2022/12/28 19:59:52;;;;;;;14.30;7.50;;;;;;;3.41;80.85;98621.29;420917;1297;99241;-39
2022/12/28 20:09:59;;;;;;;8.10;4.70;;;;;;;3.42;80.66;98618.05;421011;1292;112193;-40
2022/12/28 20:20:08;;;;;;;13.30;6.10;;;;;;;3.48;80.50;98614.89;420987;1290;107016;-38
2022/12/28 20:30:15;;;;;;;13.40;6.90;;;;;;;3.45;80.57;98603.63;420916;1297;99240;-39
2022/12/28 20:40:22;;;;;;;14.50;7.00;;;;;;;3.34;80.51;98606.30;421092;1298;108801;-39
2022/12/28 20:50:30;;;;;;;8.90;4.80;;;;;;;3.26;80.43;98602.25;420898;1295;98376;-41
2022/12/28 21:10:46;;;;;;;18.80;8.20;;;;;;;3.40;80.25;98585.21;420892;1299;109076;-40
2022/12/28 21:31:03;;;;;;;5.90;4.10;;;;;;;3.50;79.70;98563.20;420965;1299;107556;-40
2022/12/28 21:41:12;;;;;;;8.90;4.60;;;;;;;3.66;79.29;98557.04;420775;1298;98392;-40
2022/12/28 22:22:34;;;;;;;10.90;4.00;;;;;;;3.60;78.41;98522.08;421005;1291;111329;-39
2022/12/28 22:32:41;;;;;;;19.10;7.50;;;;;;;3.69;78.10;98521.82;420966;1298;107785;-40
2022/12/28 22:42:50;;;;;;;18.30;7.50;;;;;;;3.65;78.15;98542.02;421010;1283;118211;-40
2022/12/28 23:03:06;;;;;;;16.10;7.90;;;;;;;3.45;77.82;98525.73;420854;1291;99194;-39
2022/12/28 23:13:13;;;;;;;14.50;6.30;;;;;;;3.53;77.68;98519.30;420917;1291;111699;-39
2022/12/28 23:33:46;;;;;;;14.00;5.80;;;;;;;3.53;77.61;98506.75;420836;1296;99224;-39
2022/12/28 23:43:53;;;;;;;8.90;4.60;;;;;;;3.48;77.23;98513.49;420847;1298;110770;-40
2022/12/28 23:54:01;;;;;;;4.40;2.80;;;;;;;3.55;76.92;98504.64;420852;1295;99155;-40
